sensor_id;sensor_type;location;lat;lon;timestamp;pressure;altitude;pressure_sealevel;temperature;humidity
51195;BME280;37259;49.972;19.850;2023-01-29T00:00:02;99620;;;0.2;83.6
51195;BME280;37259;49.972;19.850;2023-01-29T00:01:01;99620;;;0.2;83.6
51195;BME280;37259;49.972;19.850;2023-01-29T00:02:01;99620;;;0.2;83.6
51195;BME280;37259;49.972;19.850;2023-01-29T00:03:01;99620;;;0.2;83.6
51195;BME280;37259;49.972;19.850;2023-01-29T00:04:01;99620;;;0.2;83.6
51195;BME280;37259;49.972;19.850;2023-01-29T00:05:01;99620;;;0.2;83.6
51195;BME280;37259;49.972;19.850;2023-01-29T00:06:03;99620;;;0.2;83.6
51195;BME280;37259;49.972;19.850;2023-01-29T00:07:01;99620;;;0.1;83.7
51195;BME280;37259;49.972;19.850;2023-01-29T00:08:01;99620;;;0.1;83.7
51195;BME280;37259;49.972;19.850;2023-01-29T00:09:01;99620;;;0.2;83.7
51195;BME280;37259;49.972;19.850;2023-01-29T00:10:01;99620;;;0.1;83.8
51195;BME280;37259;49.972;19.850;2023-01-29T00:11:01;99620;;;0.1;83.9
51195;BME280;37259;49.972;19.850;2023-01-29T00:12:01;99620;;;0.1;83.9
51195;BME280;37259;49.972;19.850;2023-01-29T00:13:01;99620;;;0.1;84
51195;BME280;37259;49.972;19.850;2023-01-29T00:14:01;99620;;;0.1;84
51195;BME280;37259;49.972;19.850;2023-01-29T00:15:01;99620;;;0.1;84.1
51195;BME280;37259;49.972;19.850;2023-01-29T00:16:01;99620;;;0.1;84.1
51195;BME280;37259;49.972;19.850;2023-01-29T00:17:01;99620;;;0.1;83.9
51195;BME280;37259;49.972;19.850;2023-01-29T00:18:01;99620;;;0.1;83.9
51195;BME280;37259;49.972;19.850;2023-01-29T00:19:02;99620;;;0.1;83.9
51195;BME280;37259;49.972;19.850;2023-01-29T00:20:01;99620;;;0.2;84
51195;BME280;37259;49.972;19.850;2023-01-29T00:21:01;99630;;;0.2;84
51195;BME280;37259;49.972;19.850;2023-01-29T00:22:01;99630;;;0.2;84
51195;BME280;37259;49.972;19.850;2023-01-29T00:23:01;99630;;;0.2;84
51195;BME280;37259;49.972;19.850;2023-01-29T00:24:01;99630;;;0.2;84
51195;BME280;37259;49.972;19.850;2023-01-29T00:25:01;99630;;;0.2;84
51195;BME280;37259;49.972;19.850;2023-01-29T00:26:01;99630;;;0.2;84
51195;BME280;37259;49.972;19.850;2023-01-29T00:27:01;99630;;;0.2;84
51195;BME280;37259;49.972;19.850;2023-01-29T00:28:01;99630;;;0.2;84
51195;BME280;37259;49.972;19.850;2023-01-29T00:29:01;99640;;;0.2;84
51195;BME280;37259;49.972;19.850;2023-01-29T00:30:01;99640;;;0.2;84.1
51195;BME280;37259;49.972;19.850;2023-01-29T00:31:05;99640;;;0.2;84.1
51195;BME280;37259;49.972;19.850;2023-01-29T00:32:01;99640;;;0.2;84.1
51195;BME280;37259;49.972;19.850;2023-01-29T00:33:01;99630;;;0.2;84.1
51195;BME280;37259;49.972;19.850;2023-01-29T00:34:01;99630;;;0.2;84.1
51195;BME280;37259;49.972;19.850;2023-01-29T00:35:01;99630;;;0.2;84.1
51195;BME280;37259;49.972;19.850;2023-01-29T00:36:02;99630;;;0.2;84.1
51195;BME280;37259;49.972;19.850;2023-01-29T00:37:01;99630;;;0.2;84
51195;BME280;37259;49.972;19.850;2023-01-29T00:38:01;99630;;;0.2;84
51195;BME280;37259;49.972;19.850;2023-01-29T00:39:01;99630;;;0.2;84
51195;BME280;37259;49.972;19.850;2023-01-29T00:40:01;99640;;;0.2;84.1
51195;BME280;37259;49.972;19.850;2023-01-29T00:41:05;99640;;;0.2;84.1
51195;BME280;37259;49.972;19.850;2023-01-29T00:42:01;99640;;;0.2;84.1
51195;BME280;37259;49.972;19.850;2023-01-29T00:43:01;99630;;;0.2;84.1
51195;BME280;37259;49.972;19.850;2023-01-29T00:44:01;99630;;;0.2;84.1
51195;BME280;37259;49.972;19.850;2023-01-29T00:45:01;99630;;;0.2;84.1
51195;BME280;37259;49.972;19.850;2023-01-29T00:46:01;99640;;;0.2;84.2
51195;BME280;37259;49.972;19.850;2023-01-29T00:47:01;99640;;;0.2;84.2
51195;BME280;37259;49.972;19.850;2023-01-29T00:48:01;99640;;;0.3;84.2
51195;BME280;37259;49.972;19.850;2023-01-29T00:49:01;99640;;;0.3;84.3
51195;BME280;37259;49.972;19.850;2023-01-29T00:50:02;99640;;;0.3;84.3
51195;BME280;37259;49.972;19.850;2023-01-29T00:51:01;99640;;;0.3;84.3
51195;BME280;37259;49.972;19.850;2023-01-29T00:52:01;99640;;;0.3;84.3
51195;BME280;37259;49.972;19.850;2023-01-29T00:53:01;99640;;;0.3;84.3
51195;BME280;37259;49.972;19.850;2023-01-29T00:54:01;99640;;;0.3;84.4
51195;BME280;37259;49.972;19.850;2023-01-29T00:55:01;99640;;;0.3;84.4
51195;BME280;37259;49.972;19.850;2023-01-29T00:56:01;99640;;;0.3;84.4
51195;BME280;37259;49.972;19.850;2023-01-29T00:57:02;99640;;;0.3;84.4
51195;BME280;37259;49.972;19.850;2023-01-29T00:58:01;99640;;;0.3;84.5
51195;BME280;37259;49.972;19.850;2023-01-29T00:59:02;99640;;;0.3;84.5
51195;BME280;37259;49.972;19.850;2023-01-29T01:00:01;99640;;;0.3;84.6
51195;BME280;37259;49.972;19.850;2023-01-29T01:01:01;99640;;;0.2;84.5
51195;BME280;37259;49.972;19.850;2023-01-29T01:02:01;99640;;;0.2;84.6
51195;BME280;37259;49.972;19.850;2023-01-29T01:03:01;99640;;;0.2;84.6
51195;BME280;37259;49.972;19.850;2023-01-29T01:04:01;99640;;;0.2;84.7
51195;BME280;37259;49.972;19.850;2023-01-29T01:05:01;99640;;;0.2;84.8
51195;BME280;37259;49.972;19.850;2023-01-29T01:06:02;99640;;;0.2;84.8
51195;BME280;37259;49.972;19.850;2023-01-29T01:07:01;99630;;;0.2;84.8
51195;BME280;37259;49.972;19.850;2023-01-29T01:08:01;99640;;;0.1;84.7
51195;BME280;37259;49.972;19.850;2023-01-29T01:09:01;99640;;;0;84.8
51195;BME280;37259;49.972;19.850;2023-01-29T01:10:01;99640;;;0;85
51195;BME280;37259;49.972;19.850;2023-01-29T01:11:02;99640;;;0;85
51195;BME280;37259;49.972;19.850;2023-01-29T01:12:01;99640;;;0;85
51195;BME280;37259;49.972;19.850;2023-01-29T01:13:03;99640;;;0;84.9
51195;BME280;37259;49.972;19.850;2023-01-29T01:14:01;99640;;;0;84.9
51195;BME280;37259;49.972;19.850;2023-01-29T01:15:01;99640;;;0;84.9
51195;BME280;37259;49.972;19.850;2023-01-29T01:16:01;99640;;;0;84.9
51195;BME280;37259;49.972;19.850;2023-01-29T01:17:01;99640;;;0;84.9
51195;BME280;37259;49.972;19.850;2023-01-29T01:18:01;99650;;;-0.1;84.9
51195;BME280;37259;49.972;19.850;2023-01-29T01:19:01;99650;;;-0.1;84.9
51195;BME280;37259;49.972;19.850;2023-01-29T01:20:01;99650;;;-0.1;84.9
51195;BME280;37259;49.972;19.850;2023-01-29T01:21:01;99650;;;0;84.8
51195;BME280;37259;49.972;19.850;2023-01-29T01:22:01;99650;;;0;84.8
51195;BME280;37259;49.972;19.850;2023-01-29T01:23:01;99650;;;-0.1;84.7
51195;BME280;37259;49.972;19.850;2023-01-29T01:24:01;99650;;;-0.1;84.7
51195;BME280;37259;49.972;19.850;2023-01-29T01:25:01;99650;;;-0.1;84.6
51195;BME280;37259;49.972;19.850;2023-01-29T01:26:01;99650;;;-0.1;84.5
51195;BME280;37259;49.972;19.850;2023-01-29T01:27:01;99640;;;-0.1;84.4
51195;BME280;37259;49.972;19.850;2023-01-29T01:28:01;99650;;;-0.1;84.1
51195;BME280;37259;49.972;19.850;2023-01-29T01:29:01;99650;;;-0.1;84.1
51195;BME280;37259;49.972;19.850;2023-01-29T01:30:01;99650;;;-0.1;84
51195;BME280;37259;49.972;19.850;2023-01-29T01:31:06;99650;;;-0.1;84
51195;BME280;37259;49.972;19.850;2023-01-29T01:32:01;99650;;;-0.1;84
51195;BME280;37259;49.972;19.850;2023-01-29T01:33:01;99650;;;-0.1;83.7
51195;BME280;37259;49.972;19.850;2023-01-29T01:34:01;99650;;;-0.1;83.7
51195;BME280;37259;49.972;19.850;2023-01-29T01:35:01;99650;;;-0.1;83.4
51195;BME280;37259;49.972;19.850;2023-01-29T01:36:01;99650;;;-0.1;83.4
51195;BME280;37259;49.972;19.850;2023-01-29T01:37:01;99650;;;-0.1;83.3
51195;BME280;37259;49.972;19.850;2023-01-29T01:38:01;99650;;;-0.1;83.3
51195;BME280;37259;49.972;19.850;2023-01-29T01:39:01;99650;;;-0.1;83
51195;BME280;37259;49.972;19.850;2023-01-29T01:40:02;99650;;;-0.2;82.8
51195;BME280;37259;49.972;19.850;2023-01-29T01:41:01;99650;;;-0.2;82.8
51195;BME280;37259;49.972;19.850;2023-01-29T01:42:01;99650;;;-0.2;82.4
51195;BME280;37259;49.972;19.850;2023-01-29T01:43:01;99650;;;-0.2;82.4
51195;BME280;37259;49.972;19.850;2023-01-29T01:44:02;99650;;;-0.2;82.3
51195;BME280;37259;49.972;19.850;2023-01-29T01:45:02;99650;;;-0.2;82.3
51195;BME280;37259;49.972;19.850;2023-01-29T01:46:01;99660;;;-0.3;82.2
51195;BME280;37259;49.972;19.850;2023-01-29T01:47:01;99660;;;-0.3;82.2
51195;BME280;37259;49.972;19.850;2023-01-29T01:48:02;99660;;;-0.3;82.2
51195;BME280;37259;49.972;19.850;2023-01-29T01:49:02;99660;;;-0.3;82.3
51195;BME280;37259;49.972;19.850;2023-01-29T01:50:03;99660;;;-0.3;82.3
51195;BME280;37259;49.972;19.850;2023-01-29T01:52:01;99660;;;-0.3;82.3
51195;BME280;37259;49.972;19.850;2023-01-29T01:53:02;99660;;;-0.3;82.3
51195;BME280;37259;49.972;19.850;2023-01-29T01:54:02;99660;;;-0.3;82.3
51195;BME280;37259;49.972;19.850;2023-01-29T01:55:01;99660;;;-0.4;82.4
51195;BME280;37259;49.972;19.850;2023-01-29T01:56:02;99660;;;-0.4;82.6
51195;BME280;37259;49.972;19.850;2023-01-29T01:57:02;99660;;;-0.4;82.6
51195;BME280;37259;49.972;19.850;2023-01-29T01:58:02;99660;;;-0.4;82.6
51195;BME280;37259;49.972;19.850;2023-01-29T01:59:01;99660;;;-0.4;82.6
51195;BME280;37259;49.972;19.850;2023-01-29T02:00:03;99660;;;-0.4;82.7
51195;BME280;37259;49.972;19.850;2023-01-29T02:01:01;99660;;;-0.4;82.7
51195;BME280;37259;49.972;19.850;2023-01-29T02:02:01;99660;;;-0.4;82.7
51195;BME280;37259;49.972;19.850;2023-01-29T02:03:01;99660;;;-0.4;82.7
51195;BME280;37259;49.972;19.850;2023-01-29T02:04:02;99660;;;-0.4;82.7
51195;BME280;37259;49.972;19.850;2023-01-29T02:05:01;99660;;;-0.4;82.7
51195;BME280;37259;49.972;19.850;2023-01-29T02:06:01;99660;;;-0.4;82.7
51195;BME280;37259;49.972;19.850;2023-01-29T02:07:02;99650;;;-0.4;82.7
51195;BME280;37259;49.972;19.850;2023-01-29T02:08:01;99650;;;-0.4;82.7
51195;BME280;37259;49.972;19.850;2023-01-29T02:09:02;99650;;;-0.5;82.6
51195;BME280;37259;49.972;19.850;2023-01-29T02:10:02;99650;;;-0.5;82.6
51195;BME280;37259;49.972;19.850;2023-01-29T02:11:01;99650;;;-0.4;82.6
51195;BME280;37259;49.972;19.850;2023-01-29T02:12:02;99640;;;-0.4;82.6
51195;BME280;37259;49.972;19.850;2023-01-29T02:13:01;99640;;;-0.4;82.6
51195;BME280;37259;49.972;19.850;2023-01-29T02:14:01;99640;;;-0.4;82.6
51195;BME280;37259;49.972;19.850;2023-01-29T02:15:01;99630;;;-0.4;82.6
51195;BME280;37259;49.972;19.850;2023-01-29T02:16:01;99630;;;-0.4;82.5
51195;BME280;37259;49.972;19.850;2023-01-29T02:17:01;99630;;;-0.4;82.5
51195;BME280;37259;49.972;19.850;2023-01-29T02:18:01;99630;;;-0.4;82.5
51195;BME280;37259;49.972;19.850;2023-01-29T02:19:02;99630;;;-0.4;82.5
51195;BME280;37259;49.972;19.850;2023-01-29T02:20:02;99630;;;-0.4;82.2
51195;BME280;37259;49.972;19.850;2023-01-29T02:21:05;99630;;;-0.4;82.1
51195;BME280;37259;49.972;19.850;2023-01-29T02:22:05;99630;;;-0.4;82.1
51195;BME280;37259;49.972;19.850;2023-01-29T02:23:07;99620;;;-0.4;82.2
51195;BME280;37259;49.972;19.850;2023-01-29T02:24:21;99620;;;-0.4;82.2
51195;BME280;37259;49.972;19.850;2023-01-29T02:25:02;99620;;;-0.4;82.2
51195;BME280;37259;49.972;19.850;2023-01-29T02:26:13;99620;;;-0.5;82.3
51195;BME280;37259;49.972;19.850;2023-01-29T02:27:04;99620;;;-0.5;82.3
51195;BME280;37259;49.972;19.850;2023-01-29T02:28:10;99610;;;-0.5;82.4
51195;BME280;37259;49.972;19.850;2023-01-29T02:29:03;99610;;;-0.5;82.4
51195;BME280;37259;49.972;19.850;2023-01-29T02:30:02;99610;;;-0.4;82.5
51195;BME280;37259;49.972;19.850;2023-01-29T02:31:04;99610;;;-0.4;82.5
51195;BME280;37259;49.972;19.850;2023-01-29T02:32:07;99610;;;-0.4;82.5
51195;BME280;37259;49.972;19.850;2023-01-29T02:33:04;99600;;;-0.4;82.5
51195;BME280;37259;49.972;19.850;2023-01-29T02:34:04;99600;;;-0.4;82.5
51195;BME280;37259;49.972;19.850;2023-01-29T02:35:05;99600;;;-0.4;82.6
51195;BME280;37259;49.972;19.850;2023-01-29T02:36:03;99600;;;-0.4;82.6
51195;BME280;37259;49.972;19.850;2023-01-29T02:37:02;99600;;;-0.4;82.6
51195;BME280;37259;49.972;19.850;2023-01-29T02:38:06;99600;;;-0.4;82.6
51195;BME280;37259;49.972;19.850;2023-01-29T02:39:03;99600;;;-0.4;82.6
51195;BME280;37259;49.972;19.850;2023-01-29T02:40:04;99600;;;-0.4;82.6
51195;BME280;37259;49.972;19.850;2023-01-29T02:41:02;99610;;;-0.4;82.6
51195;BME280;37259;49.972;19.850;2023-01-29T02:42:04;99610;;;-0.4;82.6
51195;BME280;37259;49.972;19.850;2023-01-29T02:43:05;99620;;;-0.3;82.6
51195;BME280;37259;49.972;19.850;2023-01-29T02:44:02;99620;;;-0.3;82.6
51195;BME280;37259;49.972;19.850;2023-01-29T02:45:03;99610;;;-0.3;82.3
51195;BME280;37259;49.972;19.850;2023-01-29T02:46:03;99610;;;-0.3;82.2
51195;BME280;37259;49.972;19.850;2023-01-29T02:47:03;99610;;;-0.3;82.2
51195;BME280;37259;49.972;19.850;2023-01-29T02:48:01;99610;;;-0.4;81.6
51195;BME280;37259;49.972;19.850;2023-01-29T02:49:04;99610;;;-0.4;81.6
51195;BME280;37259;49.972;19.850;2023-01-29T02:50:02;99600;;;-0.4;81.3
51195;BME280;37259;49.972;19.850;2023-01-29T02:51:03;99600;;;-0.5;80.8
51195;BME280;37259;49.972;19.850;2023-01-29T02:52:02;99600;;;-0.5;80.8
51195;BME280;37259;49.972;19.850;2023-01-29T02:53:03;99600;;;-0.4;80.6
51195;BME280;37259;49.972;19.850;2023-01-29T02:54:02;99600;;;-0.4;80.6
51195;BME280;37259;49.972;19.850;2023-01-29T02:55:03;99600;;;-0.4;80.2
51195;BME280;37259;49.972;19.850;2023-01-29T02:56:02;99600;;;-0.4;80.2
51195;BME280;37259;49.972;19.850;2023-01-29T02:57:03;99610;;;-0.5;79.9
51195;BME280;37259;49.972;19.850;2023-01-29T02:58:03;99610;;;-0.5;79.8
51195;BME280;37259;49.972;19.850;2023-01-29T02:59:02;99600;;;-0.5;79.8
51195;BME280;37259;49.972;19.850;2023-01-29T03:00:03;99600;;;-0.5;79.8
51195;BME280;37259;49.972;19.850;2023-01-29T03:01:03;99600;;;-0.5;80
51195;BME280;37259;49.972;19.850;2023-01-29T03:02:02;99600;;;-0.5;80.2
51195;BME280;37259;49.972;19.850;2023-01-29T03:03:02;99600;;;-0.5;80.2
51195;BME280;37259;49.972;19.850;2023-01-29T03:04:02;99600;;;-0.5;80.3
51195;BME280;37259;49.972;19.850;2023-01-29T03:05:02;99600;;;-0.5;80.3
51195;BME280;37259;49.972;19.850;2023-01-29T03:06:02;99600;;;-0.6;80.5
51195;BME280;37259;49.972;19.850;2023-01-29T03:07:02;99600;;;-0.5;80.5
51195;BME280;37259;49.972;19.850;2023-01-29T03:08:03;99600;;;-0.5;80.6
51195;BME280;37259;49.972;19.850;2023-01-29T03:09:03;99600;;;-0.5;80.6
51195;BME280;37259;49.972;19.850;2023-01-29T03:10:01;99600;;;-0.5;80.7
51195;BME280;37259;49.972;19.850;2023-01-29T03:11:02;99600;;;-0.5;80.7
51195;BME280;37259;49.972;19.850;2023-01-29T03:12:03;99600;;;-0.5;81
51195;BME280;37259;49.972;19.850;2023-01-29T03:13:02;99600;;;-0.5;81.1
51195;BME280;37259;49.972;19.850;2023-01-29T03:14:02;99610;;;-0.5;81.2
51195;BME280;37259;49.972;19.850;2023-01-29T03:15:02;99610;;;-0.5;81.2
51195;BME280;37259;49.972;19.850;2023-01-29T03:16:02;99610;;;-0.6;81.3
51195;BME280;37259;49.972;19.850;2023-01-29T03:17:01;99610;;;-0.6;81.3
51195;BME280;37259;49.972;19.850;2023-01-29T03:18:03;99620;;;-0.5;81.4
51195;BME280;37259;49.972;19.850;2023-01-29T03:19:02;99620;;;-0.5;81.4
51195;BME280;37259;49.972;19.850;2023-01-29T03:20:02;99620;;;-0.5;81.5
51195;BME280;37259;49.972;19.850;2023-01-29T03:21:02;99620;;;-0.5;81.6
51195;BME280;37259;49.972;19.850;2023-01-29T03:22:02;99620;;;-0.5;81.6
51195;BME280;37259;49.972;19.850;2023-01-29T03:23:03;99630;;;-0.6;81.5
51195;BME280;37259;49.972;19.850;2023-01-29T03:24:01;99630;;;-0.6;81.5
51195;BME280;37259;49.972;19.850;2023-01-29T03:25:02;99630;;;-0.6;81.5
51195;BME280;37259;49.972;19.850;2023-01-29T03:26:01;99630;;;-0.6;81.5
51195;BME280;37259;49.972;19.850;2023-01-29T03:27:02;99630;;;-0.6;81.4
51195;BME280;37259;49.972;19.850;2023-01-29T03:28:01;99630;;;-0.6;81.4
51195;BME280;37259;49.972;19.850;2023-01-29T03:29:02;99630;;;-0.6;81.4
51195;BME280;37259;49.972;19.850;2023-01-29T03:30:01;99630;;;-0.6;81.4
51195;BME280;37259;49.972;19.850;2023-01-29T03:31:02;99630;;;-0.6;81.4
51195;BME280;37259;49.972;19.850;2023-01-29T03:32:01;99630;;;-0.6;81.4
51195;BME280;37259;49.972;19.850;2023-01-29T03:33:02;99630;;;-0.6;81.5
51195;BME280;37259;49.972;19.850;2023-01-29T03:34:04;99630;;;-0.6;81.5
51195;BME280;37259;49.972;19.850;2023-01-29T03:35:02;99630;;;-0.6;81.5
51195;BME280;37259;49.972;19.850;2023-01-29T03:36:04;99630;;;-0.7;81.5
51195;BME280;37259;49.972;19.850;2023-01-29T03:37:02;99630;;;-0.7;81.5
51195;BME280;37259;49.972;19.850;2023-01-29T03:38:01;99630;;;-0.7;81.3
51195;BME280;37259;49.972;19.850;2023-01-29T03:39:01;99640;;;-0.7;81.1
51195;BME280;37259;49.972;19.850;2023-01-29T03:40:01;99640;;;-0.7;81.1
51195;BME280;37259;49.972;19.850;2023-01-29T03:41:02;99640;;;-0.7;81
51195;BME280;37259;49.972;19.850;2023-01-29T03:42:03;99640;;;-0.7;80.8
51195;BME280;37259;49.972;19.850;2023-01-29T03:43:04;99640;;;-0.7;80.8
51195;BME280;37259;49.972;19.850;2023-01-29T03:44:04;99640;;;-0.7;80.8
51195;BME280;37259;49.972;19.850;2023-01-29T03:45:05;99640;;;-0.7;80.8
51195;BME280;37259;49.972;19.850;2023-01-29T03:46:02;99640;;;-0.7;80.8
51195;BME280;37259;49.972;19.850;2023-01-29T03:47:04;99640;;;-0.7;80.8
51195;BME280;37259;49.972;19.850;2023-01-29T03:48:03;99640;;;-0.7;80.8
51195;BME280;37259;49.972;19.850;2023-01-29T03:49:02;99640;;;-0.7;80.7
51195;BME280;37259;49.972;19.850;2023-01-29T03:50:02;99650;;;-0.7;80.6
51195;BME280;37259;49.972;19.850;2023-01-29T03:51:05;99650;;;-0.7;80.6
51195;BME280;37259;49.972;19.850;2023-01-29T03:52:02;99640;;;-0.7;80.6
51195;BME280;37259;49.972;19.850;2023-01-29T03:53:03;99650;;;-0.7;80.6
51195;BME280;37259;49.972;19.850;2023-01-29T03:54:04;99650;;;-0.7;80.6
51195;BME280;37259;49.972;19.850;2023-01-29T03:55:02;99640;;;-0.7;80.5
51195;BME280;37259;49.972;19.850;2023-01-29T03:56:02;99640;;;-0.7;80.5
51195;BME280;37259;49.972;19.850;2023-01-29T03:57:02;99640;;;-0.7;80.5
51195;BME280;37259;49.972;19.850;2023-01-29T03:58:03;99640;;;-0.7;80.5
51195;BME280;37259;49.972;19.850;2023-01-29T03:59:02;99630;;;-0.7;80.7
51195;BME280;37259;49.972;19.850;2023-01-29T04:00:02;99630;;;-0.7;80.7
51195;BME280;37259;49.972;19.850;2023-01-29T04:01:02;99630;;;-0.7;80.7
51195;BME280;37259;49.972;19.850;2023-01-29T04:02:01;99620;;;-0.8;80.5
51195;BME280;37259;49.972;19.850;2023-01-29T04:03:03;99620;;;-0.8;80.6
51195;BME280;37259;49.972;19.850;2023-01-29T04:04:02;99620;;;-0.8;80.6
51195;BME280;37259;49.972;19.850;2023-01-29T04:05:03;99620;;;-0.8;80.7
51195;BME280;37259;49.972;19.850;2023-01-29T04:06:03;99610;;;-0.7;80.8
51195;BME280;37259;49.972;19.850;2023-01-29T04:07:03;99610;;;-0.7;80.8
51195;BME280;37259;49.972;19.850;2023-01-29T04:08:04;99610;;;-0.8;80.7
51195;BME280;37259;49.972;19.850;2023-01-29T04:09:02;99610;;;-0.8;80.7
51195;BME280;37259;49.972;19.850;2023-01-29T04:10:02;99610;;;-0.7;80.6
51195;BME280;37259;49.972;19.850;2023-01-29T04:11:02;99610;;;-0.7;80.6
51195;BME280;37259;49.972;19.850;2023-01-29T04:12:03;99610;;;-0.7;80.7
51195;BME280;37259;49.972;19.850;2023-01-29T04:13:03;99620;;;-0.7;80.7
51195;BME280;37259;49.972;19.850;2023-01-29T04:14:02;99620;;;-0.7;80.7
51195;BME280;37259;49.972;19.850;2023-01-29T04:15:01;99620;;;-0.7;80.7
51195;BME280;37259;49.972;19.850;2023-01-29T04:16:01;99610;;;-0.8;80.6
51195;BME280;37259;49.972;19.850;2023-01-29T04:17:02;99610;;;-0.8;80.6
51195;BME280;37259;49.972;19.850;2023-01-29T04:18:01;99610;;;-0.8;80.5
51195;BME280;37259;49.972;19.850;2023-01-29T04:19:01;99610;;;-0.8;80.5
51195;BME280;37259;49.972;19.850;2023-01-29T04:20:01;99610;;;-0.8;80.5
51195;BME280;37259;49.972;19.850;2023-01-29T04:21:01;99610;;;-0.8;80.4
51195;BME280;37259;49.972;19.850;2023-01-29T04:22:03;99610;;;-0.8;80.4
51195;BME280;37259;49.972;19.850;2023-01-29T04:23:04;99600;;;-0.8;80.1
51195;BME280;37259;49.972;19.850;2023-01-29T04:24:01;99600;;;-0.8;80
51195;BME280;37259;49.972;19.850;2023-01-29T04:25:02;99600;;;-0.8;80
51195;BME280;37259;49.972;19.850;2023-01-29T04:26:07;99600;;;-0.9;79.9
51195;BME280;37259;49.972;19.850;2023-01-29T04:27:06;99590;;;-0.9;79.4
51195;BME280;37259;49.972;19.850;2023-01-29T04:28:03;99600;;;-0.9;79.5
51195;BME280;37259;49.972;19.850;2023-01-29T04:29:08;99600;;;-0.9;79.5
51195;BME280;37259;49.972;19.850;2023-01-29T04:30:06;99600;;;-0.9;79.6
51195;BME280;37259;49.972;19.850;2023-01-29T04:31:02;99600;;;-0.8;79.6
51195;BME280;37259;49.972;19.850;2023-01-29T04:32:03;99600;;;-0.9;79.5
51195;BME280;37259;49.972;19.850;2023-01-29T04:33:03;99600;;;-0.9;79.5
51195;BME280;37259;49.972;19.850;2023-01-29T04:34:03;99600;;;-0.9;79.5
51195;BME280;37259;49.972;19.850;2023-01-29T04:35:04;99600;;;-0.9;79.6
51195;BME280;37259;49.972;19.850;2023-01-29T04:36:04;99600;;;-0.9;79.6
51195;BME280;37259;49.972;19.850;2023-01-29T04:37:03;99610;;;-0.9;79.7
51195;BME280;37259;49.972;19.850;2023-01-29T04:38:05;99610;;;-0.9;79.7
51195;BME280;37259;49.972;19.850;2023-01-29T04:39:04;99610;;;-0.9;79.7
51195;BME280;37259;49.972;19.850;2023-01-29T04:40:03;99610;;;-0.9;79.8
51195;BME280;37259;49.972;19.850;2023-01-29T04:41:02;99610;;;-0.9;79.8
51195;BME280;37259;49.972;19.850;2023-01-29T04:42:04;99600;;;-1;80
51195;BME280;37259;49.972;19.850;2023-01-29T04:43:02;99600;;;-1;80
51195;BME280;37259;49.972;19.850;2023-01-29T04:44:03;99590;;;-1;79.9
51195;BME280;37259;49.972;19.850;2023-01-29T04:45:02;99590;;;-1;79.9
51195;BME280;37259;49.972;19.850;2023-01-29T04:46:05;99580;;;-1;79.9
51195;BME280;37259;49.972;19.850;2023-01-29T04:47:03;99580;;;-1;79.9
51195;BME280;37259;49.972;19.850;2023-01-29T04:48:03;99570;;;-1;79.7
51195;BME280;37259;49.972;19.850;2023-01-29T04:49:05;99570;;;-1;79.7
51195;BME280;37259;49.972;19.850;2023-01-29T04:50:02;99570;;;-1.1;79.9
51195;BME280;37259;49.972;19.850;2023-01-29T04:51:03;99570;;;-1.1;79.9
51195;BME280;37259;49.972;19.850;2023-01-29T04:52:04;99570;;;-1.1;80.1
51195;BME280;37259;49.972;19.850;2023-01-29T04:53:03;99570;;;-1.1;80.1
51195;BME280;37259;49.972;19.850;2023-01-29T04:54:04;99570;;;-1.1;80.5
51195;BME280;37259;49.972;19.850;2023-01-29T04:55:03;99570;;;-1.1;80.6
51195;BME280;37259;49.972;19.850;2023-01-29T04:56:04;99570;;;-1.1;80.6
51195;BME280;37259;49.972;19.850;2023-01-29T04:57:04;99570;;;-1.1;80.6
51195;BME280;37259;49.972;19.850;2023-01-29T04:58:03;99570;;;-1.1;80.6
51195;BME280;37259;49.972;19.850;2023-01-29T04:59:02;99570;;;-1.1;80.7
51195;BME280;37259;49.972;19.850;2023-01-29T05:00:02;99570;;;-1.1;80.7
51195;BME280;37259;49.972;19.850;2023-01-29T05:01:01;99570;;;-1.1;80.7
51195;BME280;37259;49.972;19.850;2023-01-29T05:02:01;99570;;;-1.1;80.7
51195;BME280;37259;49.972;19.850;2023-01-29T05:03:01;99570;;;-1.1;80.5
51195;BME280;37259;49.972;19.850;2023-01-29T05:04:03;99570;;;-1.1;80.5
51195;BME280;37259;49.972;19.850;2023-01-29T05:05:01;99570;;;-1.2;80.3
51195;BME280;37259;49.972;19.850;2023-01-29T05:06:01;99570;;;-1.2;80.2
51195;BME280;37259;49.972;19.850;2023-01-29T05:07:01;99570;;;-1.2;80.2
51195;BME280;37259;49.972;19.850;2023-01-29T05:08:01;99570;;;-1.2;80.3
51195;BME280;37259;49.972;19.850;2023-01-29T05:09:01;99570;;;-1.2;80.3
51195;BME280;37259;49.972;19.850;2023-01-29T05:10:01;99570;;;-1.2;80.3
51195;BME280;37259;49.972;19.850;2023-01-29T05:11:01;99570;;;-1.2;80.2
51195;BME280;37259;49.972;19.850;2023-01-29T05:12:01;99570;;;-1.2;80.1
51195;BME280;37259;49.972;19.850;2023-01-29T05:13:02;99570;;;-1.2;80.1
51195;BME280;37259;49.972;19.850;2023-01-29T05:14:02;99560;;;-1.2;80.3
51195;BME280;37259;49.972;19.850;2023-01-29T05:15:02;99560;;;-1.2;80.3
51195;BME280;37259;49.972;19.850;2023-01-29T05:16:03;99550;;;-1.3;80.5
51195;BME280;37259;49.972;19.850;2023-01-29T05:17:02;99550;;;-1.3;80.5
51195;BME280;37259;49.972;19.850;2023-01-29T05:18:01;99550;;;-1.3;80.6
51195;BME280;37259;49.972;19.850;2023-01-29T05:19:01;99550;;;-1.3;80.6
51195;BME280;37259;49.972;19.850;2023-01-29T05:20:01;99550;;;-1.3;80.7
51195;BME280;37259;49.972;19.850;2023-01-29T05:21:02;99550;;;-1.3;80.7
51195;BME280;37259;49.972;19.850;2023-01-29T05:22:01;99550;;;-1.4;80.7
51195;BME280;37259;49.972;19.850;2023-01-29T05:23:01;99560;;;-1.4;80.6
51195;BME280;37259;49.972;19.850;2023-01-29T05:24:05;99560;;;-1.3;80.6
51195;BME280;37259;49.972;19.850;2023-01-29T05:25:01;99560;;;-1.3;80.6
51195;BME280;37259;49.972;19.850;2023-01-29T05:26:02;99570;;;-1.5;80.2
51195;BME280;37259;49.972;19.850;2023-01-29T05:27:01;99560;;;-1.5;80.1
51195;BME280;37259;49.972;19.850;2023-01-29T05:28:01;99570;;;-1.5;79.6
51195;BME280;37259;49.972;19.850;2023-01-29T05:29:01;99570;;;-1.6;79.4
51195;BME280;37259;49.972;19.850;2023-01-29T05:30:01;99570;;;-1.6;79.4
51195;BME280;37259;49.972;19.850;2023-01-29T05:31:01;99570;;;-1.6;79.3
51195;BME280;37259;49.972;19.850;2023-01-29T05:32:02;99570;;;-1.5;79.4
51195;BME280;37259;49.972;19.850;2023-01-29T05:33:01;99580;;;-1.6;79.3
51195;BME280;37259;49.972;19.850;2023-01-29T05:34:01;99580;;;-1.6;79.3
51195;BME280;37259;49.972;19.850;2023-01-29T05:35:01;99580;;;-1.6;78.5
51195;BME280;37259;49.972;19.850;2023-01-29T05:36:01;99580;;;-1.6;78.5
51195;BME280;37259;49.972;19.850;2023-01-29T05:37:01;99580;;;-1.6;78.5
51195;BME280;37259;49.972;19.850;2023-01-29T05:38:01;99580;;;-1.7;78.4
51195;BME280;37259;49.972;19.850;2023-01-29T05:39:01;99580;;;-1.7;78.5